createdAt,value
2022-11-09T00:01:48.832Z,52.79
2022-11-09T00:04:50.396Z,52.84
2022-11-09T00:07:52.001Z,52.96
2022-11-09T00:10:53.599Z,52.78
2022-11-09T00:13:55.185Z,52.68
2022-11-09T00:16:57.355Z,52.82
2022-11-09T00:19:58.909Z,52.98
2022-11-09T00:23:00.448Z,52.82
2022-11-09T00:26:07.395Z,52.90
2022-11-09T00:29:09.228Z,52.89
2022-11-09T00:32:10.878Z,53.00
2022-11-09T00:35:12.394Z,52.97
2022-11-09T00:38:13.942Z,53.17
2022-11-09T00:41:15.460Z,52.76
2022-11-09T00:44:17.025Z,53.07
2022-11-09T00:47:18.560Z,52.97
2022-11-09T00:50:20.121Z,53.01
2022-11-09T00:53:23.050Z,52.92
2022-11-09T00:56:24.782Z,53.17
2022-11-09T00:59:26.332Z,52.86
2022-11-09T01:02:27.953Z,53.08
2022-11-09T01:05:29.508Z,53.27
2022-11-09T01:08:31.188Z,52.89
2022-11-09T01:11:32.763Z,53.07
2022-11-09T01:14:34.326Z,52.96
2022-11-09T01:17:35.895Z,53.20
2022-11-09T01:20:45.963Z,53.11
2022-11-09T01:23:47.507Z,53.21
2022-11-09T01:26:49.047Z,53.15
2022-11-09T01:29:50.600Z,53.07
2022-11-09T01:32:53.683Z,53.11
2022-11-09T01:35:55.249Z,52.99
2022-11-09T01:38:56.936Z,53.08
2022-11-09T01:41:58.537Z,53.30
2022-11-09T01:45:22.370Z,53.47
2022-11-09T01:48:35.884Z,53.05
2022-11-09T01:51:42.639Z,53.00
2022-11-09T01:54:51.082Z,53.28
2022-11-09T01:58:02.817Z,53.31
2022-11-09T02:01:05.423Z,53.38
2022-11-09T02:04:23.432Z,53.25
2022-11-09T02:07:25.592Z,53.41
2022-11-09T02:10:33.867Z,53.42
2022-11-09T02:13:37.667Z,53.43
2022-11-09T02:16:41.062Z,53.49
2022-11-09T02:19:42.587Z,53.46
2022-11-09T02:22:44.423Z,53.18
2022-11-09T02:25:54.496Z,53.18
2022-11-09T02:28:57.684Z,53.38
2022-11-09T02:32:04.150Z,53.51
2022-11-09T02:35:05.900Z,53.38
2022-11-09T02:38:11.483Z,53.17
2022-11-09T02:41:13.466Z,53.18
2022-11-09T02:44:16.355Z,53.45
2022-11-09T02:47:17.908Z,53.34
2022-11-09T02:50:20.396Z,53.38
2022-11-09T02:53:22.121Z,53.26
2022-11-09T02:56:24.143Z,53.28
2022-11-09T02:59:25.764Z,53.41
2022-11-09T03:02:27.446Z,53.66
2022-11-09T03:05:29.053Z,53.58
2022-11-09T03:08:30.588Z,53.44
2022-11-09T03:11:32.526Z,53.61
2022-11-09T03:14:34.054Z,53.43
2022-11-09T03:17:36.131Z,53.62
2022-11-09T03:20:37.749Z,53.47
2022-11-09T03:23:39.300Z,53.26
2022-11-09T03:26:40.862Z,53.58
2022-11-09T03:29:42.469Z,53.35
2022-11-09T03:32:49.478Z,53.40
2022-11-09T03:35:52.052Z,53.49
2022-11-09T03:38:53.603Z,53.47
2022-11-09T03:41:55.263Z,53.43
2022-11-09T03:44:56.830Z,53.52
2022-11-09T03:48:00.476Z,53.66
2022-11-09T03:51:02.034Z,53.35
2022-11-09T03:54:03.910Z,53.40
2022-11-09T03:57:05.491Z,53.45
2022-11-09T04:00:09.053Z,53.43
2022-11-09T04:03:10.590Z,53.36
2022-11-09T04:06:12.200Z,53.68
2022-11-09T04:09:13.941Z,53.40
2022-11-09T04:12:15.520Z,53.84
2022-11-09T04:15:17.500Z,53.63
2022-11-09T04:18:19.078Z,53.77
2022-11-09T04:21:23.911Z,53.75
2022-11-09T04:24:25.678Z,53.74
2022-11-09T04:27:27.376Z,53.53
2022-11-09T04:30:31.005Z,53.52
2022-11-09T04:33:32.532Z,53.93
2022-11-09T04:36:34.132Z,53.62
2022-11-09T04:39:35.979Z,53.58
2022-11-09T04:42:37.507Z,53.52
2022-11-09T04:45:39.320Z,53.55
2022-11-09T04:48:40.990Z,53.59
2022-11-09T04:51:42.568Z,53.52
2022-11-09T04:54:44.162Z,53.43
2022-11-09T04:57:45.739Z,53.78
2022-11-09T05:00:47.302Z,53.84
2022-11-09T05:03:48.873Z,53.63
2022-11-09T05:06:50.560Z,53.84
2022-11-09T05:09:52.128Z,53.66
2022-11-09T05:13:08.203Z,53.86
2022-11-09T05:16:09.763Z,53.96
2022-11-09T05:19:11.320Z,53.64
2022-11-09T05:22:31.332Z,53.72
2022-11-09T05:25:32.916Z,53.83
2022-11-09T05:28:34.501Z,53.90
2022-11-09T05:31:37.173Z,53.89
2022-11-09T05:34:38.703Z,53.81
2022-11-09T05:37:40.508Z,53.90
2022-11-09T05:40:42.049Z,53.70
2022-11-09T05:43:44.921Z,53.98
2022-11-09T05:46:46.447Z,53.85
2022-11-09T05:49:48.043Z,54.00
2022-11-09T05:52:49.611Z,53.76
2022-11-09T05:55:51.360Z,53.82
2022-11-09T05:58:52.899Z,53.74
2022-11-09T06:01:54.489Z,53.95
2022-11-09T06:04:56.281Z,53.56
2022-11-09T06:08:03.117Z,53.89
2022-11-09T06:11:07.792Z,53.75
2022-11-09T06:14:09.346Z,53.94
2022-11-09T06:17:10.874Z,53.73
2022-11-09T06:20:12.551Z,53.82
2022-11-09T06:23:14.076Z,53.70
2022-11-09T06:26:15.701Z,53.96
2022-11-09T06:29:17.256Z,53.89
2022-11-09T06:32:18.788Z,53.99
2022-11-09T06:35:20.380Z,53.97
2022-11-09T06:38:21.990Z,53.84
2022-11-09T06:41:23.540Z,53.70
2022-11-09T06:44:25.096Z,53.70
2022-11-09T06:47:28.616Z,53.72
2022-11-09T06:50:32.920Z,53.78
2022-11-09T06:53:37.946Z,53.87
2022-11-09T06:56:39.539Z,53.83
2022-11-09T06:59:41.095Z,53.68
2022-11-09T07:02:42.804Z,54.07
2022-11-09T07:05:44.879Z,53.88
2022-11-09T07:08:46.466Z,54.06
2022-11-09T07:11:49.237Z,53.82
2022-11-09T07:14:50.904Z,54.09
2022-11-09T07:17:56.939Z,54.05
2022-11-09T07:20:58.865Z,54.12
2022-11-09T07:24:00.405Z,53.89
2022-11-09T07:27:01.990Z,54.13
2022-11-09T07:30:04.586Z,54.22
2022-11-09T07:33:14.908Z,53.99
2022-11-09T07:36:21.097Z,53.76
2022-11-09T07:39:23.323Z,53.95
2022-11-09T07:42:25.349Z,54.13
2022-11-09T07:45:28.250Z,54.28
2022-11-09T07:48:29.766Z,54.46
2022-11-09T07:51:31.356Z,54.19
2022-11-09T07:54:33.448Z,53.85
2022-11-09T07:57:34.980Z,53.92
2022-11-09T08:00:38.277Z,53.88
2022-11-09T08:03:39.900Z,54.11
2022-11-09T08:06:41.596Z,54.27
2022-11-09T08:09:43.222Z,53.83
2022-11-09T08:12:44.732Z,54.35
2022-11-09T08:15:46.357Z,54.26
2022-11-09T08:18:50.344Z,54.26
2022-11-09T08:21:57.303Z,54.09
2022-11-09T08:24:59.160Z,53.92
2022-11-09T08:28:01.416Z,54.21
2022-11-09T08:31:05.694Z,54.03
2022-11-09T08:34:16.743Z,54.09
2022-11-09T08:37:18.296Z,53.91
2022-11-09T08:40:24.355Z,54.19
2022-11-09T08:43:26.209Z,53.94
2022-11-09T08:46:27.858Z,53.98
2022-11-09T08:49:29.525Z,53.96
2022-11-09T08:52:31.611Z,54.19
2022-11-09T08:55:33.529Z,54.27
2022-11-09T08:58:36.413Z,54.05
2022-11-09T09:01:37.940Z,54.32
2022-11-09T09:04:39.737Z,54.18
2022-11-09T09:07:41.300Z,54.10
2022-11-09T09:10:43.271Z,54.29
2022-11-09T09:13:44.823Z,53.74
2022-11-09T09:16:46.457Z,54.12
2022-11-09T09:19:50.093Z,53.80
2022-11-09T09:22:51.868Z,53.74
2022-11-09T09:25:58.411Z,53.98
2022-11-09T09:29:00.331Z,53.99
2022-11-09T09:32:01.960Z,53.78
2022-11-09T09:35:03.630Z,53.98
2022-11-09T09:38:05.233Z,53.70
2022-11-09T09:41:07.844Z,53.94
2022-11-09T09:44:51.713Z,53.75
2022-11-09T09:47:55.969Z,53.93
2022-11-09T09:51:04.402Z,53.64
2022-11-09T09:54:13.232Z,53.45
2022-11-09T09:57:21.946Z,53.44
2022-11-09T10:00:26.312Z,53.75
2022-11-09T10:03:28.005Z,53.83
2022-11-09T10:07:09.669Z,53.40
2022-11-09T10:10:20.545Z,53.37
2022-11-09T10:13:54.198Z,53.65
2022-11-09T10:17:11.861Z,53.66
2022-11-09T10:20:19.544Z,53.37
2022-11-09T10:23:28.302Z,53.31
2022-11-09T10:26:50.191Z,53.47
2022-11-09T10:29:51.825Z,53.30
2022-11-09T10:32:59.987Z,53.63
2022-11-09T10:36:30.402Z,53.45
2022-11-09T10:39:47.465Z,53.28
2022-11-09T10:42:58.111Z,53.32
2022-11-09T10:46:05.938Z,53.35
2022-11-09T10:49:20.876Z,53.51
2022-11-09T10:52:44.221Z,53.18
2022-11-09T10:55:57.449Z,53.09
2022-11-09T10:58:59.012Z,53.28
2022-11-09T11:02:02.381Z,53.50
2022-11-09T11:05:06.858Z,53.11
2022-11-09T11:08:22.167Z,53.10
2022-11-09T11:11:34.455Z,53.11
2022-11-09T11:14:44.092Z,53.51
2022-11-09T11:17:45.858Z,53.58
2022-11-09T11:20:47.823Z,53.26
2022-11-09T11:24:12.364Z,53.49
2022-11-09T11:27:19.601Z,53.13
2022-11-09T11:30:35.100Z,53.54
2022-11-09T11:33:36.691Z,53.46
2022-11-09T11:37:13.481Z,53.21
2022-11-09T11:40:32.418Z,53.27
2022-11-09T11:44:16.216Z,53.16
2022-11-09T11:47:24.966Z,53.35
2022-11-09T11:50:32.181Z,53.25
2022-11-09T11:53:54.279Z,53.18
2022-11-09T11:57:24.159Z,52.91
2022-11-09T12:00:25.775Z,52.90
2022-11-09T12:03:52.255Z,52.95
2022-11-09T12:07:21.077Z,53.38
2022-11-09T12:10:44.514Z,52.95
2022-11-09T12:14:25.950Z,53.19
2022-11-09T12:17:45.391Z,52.99
2022-11-09T12:21:12.932Z,52.85
2022-11-09T12:24:44.125Z,52.82
2022-11-09T12:28:03.667Z,52.77
2022-11-09T12:31:37.672Z,53.16
2022-11-09T12:34:57.842Z,52.82
2022-11-09T12:38:03.556Z,53.02
2022-11-09T12:41:15.128Z,52.91
2022-11-09T12:44:22.495Z,52.70
2022-11-09T12:47:30.762Z,52.95
2022-11-09T12:50:33.264Z,52.65
2022-11-09T12:53:37.254Z,52.84
2022-11-09T12:56:48.229Z,52.50
2022-11-09T12:59:55.106Z,52.71
2022-11-09T13:02:59.718Z,52.88
2022-11-09T13:06:21.321Z,52.45
2022-11-09T13:09:25.836Z,52.65
2022-11-09T13:12:33.740Z,52.62
2022-11-09T13:15:35.831Z,52.56
2022-11-09T13:18:41.578Z,52.63
2022-11-09T13:21:45.953Z,52.50
2022-11-09T13:24:52.444Z,52.54
2022-11-09T13:27:54.238Z,52.41
2022-11-09T13:31:00.481Z,52.54
2022-11-09T13:34:38.992Z,52.60
2022-11-09T13:37:44.873Z,52.33
2022-11-09T13:40:50.155Z,52.46
2022-11-09T13:44:14.158Z,52.52
2022-11-09T13:47:36.544Z,52.32
2022-11-09T13:50:38.262Z,52.39
2022-11-09T13:53:39.728Z,52.41
2022-11-09T13:56:41.343Z,52.62
2022-11-09T13:59:47.944Z,52.27
2022-11-09T14:03:26.363Z,52.57
2022-11-09T14:06:32.899Z,52.16
2022-11-09T14:10:01.959Z,52.43
2022-11-09T14:13:43.075Z,52.41
2022-11-09T14:17:15.444Z,52.34
2022-11-09T14:20:22.704Z,52.37
2022-11-09T14:23:29.896Z,52.40
2022-11-09T14:26:31.472Z,52.16
2022-11-09T14:29:33.284Z,52.19
2022-11-09T14:32:36.976Z,52.18
2022-11-09T14:35:39.775Z,52.08
2022-11-09T14:38:47.491Z,52.16
2022-11-09T14:41:50.356Z,52.43
2022-11-09T14:44:51.988Z,52.13
2022-11-09T14:47:58.917Z,52.39
2022-11-09T14:51:03.445Z,52.29
2022-11-09T14:54:17.161Z,52.32
2022-11-09T14:57:19.900Z,52.20
2022-11-09T15:00:25.650Z,52.09
2022-11-09T15:03:30.770Z,52.12
2022-11-09T15:06:34.242Z,52.03
2022-11-09T15:09:48.666Z,52.29
2022-11-09T15:12:53.146Z,52.36
2022-11-09T15:15:55.640Z,52.37
2022-11-09T15:18:57.246Z,52.22
2022-11-09T15:22:00.605Z,52.18
2022-11-09T15:25:02.126Z,52.17
2022-11-09T15:28:09.868Z,52.58
2022-11-09T15:31:16.138Z,52.18
2022-11-09T15:34:23.455Z,52.43
2022-11-09T15:37:31.592Z,52.69
2022-11-09T15:40:33.169Z,52.20
2022-11-09T15:43:35.034Z,52.59
2022-11-09T15:46:43.471Z,52.43
2022-11-09T15:49:45.034Z,52.58
2022-11-09T15:52:46.631Z,52.28
2022-11-09T15:55:49.019Z,52.66
2022-11-09T15:58:53.518Z,52.41
2022-11-09T16:01:55.243Z,52.31
2022-11-09T16:04:56.949Z,52.39
2022-11-09T16:07:58.574Z,52.45
2022-11-09T16:11:04.706Z,52.26
2022-11-09T16:14:06.652Z,52.49
2022-11-09T16:17:08.250Z,52.45
2022-11-09T16:20:10.157Z,52.28
2022-11-09T16:23:11.693Z,52.42
2022-11-09T16:26:15.573Z,52.71
2022-11-09T16:29:17.141Z,52.91
2022-11-09T16:32:18.636Z,52.47
2022-11-09T16:35:28.611Z,52.54
2022-11-09T16:38:32.217Z,52.71
2022-11-09T16:41:34.187Z,52.76
2022-11-09T16:44:39.830Z,52.56
2022-11-09T16:47:48.744Z,52.50
2022-11-09T16:50:53.432Z,52.46
2022-11-09T16:53:55.123Z,52.77
2022-11-09T16:56:57.264Z,52.78
2022-11-09T16:59:58.812Z,52.89
2022-11-09T17:03:04.057Z,52.54
2022-11-09T17:06:10.844Z,52.53
2022-11-09T17:09:12.610Z,52.54
2022-11-09T17:12:14.514Z,52.58
2022-11-09T17:15:17.104Z,52.66
2022-11-09T17:18:19.000Z,52.81
2022-11-09T17:21:21.653Z,52.64
2022-11-09T17:24:23.208Z,52.84
2022-11-09T17:27:24.917Z,52.88
2022-11-09T17:30:26.577Z,52.60
2022-11-09T17:33:28.480Z,52.86
2022-11-09T17:36:57.354Z,52.71
2022-11-09T17:39:51.691Z,52.72
2022-11-09T17:42:53.300Z,52.91
2022-11-09T17:45:54.885Z,53.00
2022-11-09T17:48:56.496Z,52.90
2022-11-09T17:51:58.172Z,53.22
2022-11-09T17:54:59.693Z,52.99
2022-11-09T17:58:01.234Z,53.07
2022-11-09T18:01:07.827Z,52.99
2022-11-09T18:04:10.820Z,52.84
2022-11-09T18:07:12.501Z,52.74
2022-11-09T18:10:14.101Z,52.81
2022-11-09T18:13:15.812Z,53.04
2022-11-09T18:16:19.363Z,52.91
2022-11-09T18:19:20.918Z,53.21
2022-11-09T18:22:22.461Z,53.30
2022-11-09T18:25:24.442Z,53.26
2022-11-09T18:28:26.154Z,53.06
2022-11-09T18:31:28.073Z,52.99
2022-11-09T18:34:29.620Z,53.27
2022-11-09T18:37:34.445Z,53.16
2022-11-09T18:40:36.006Z,53.17
2022-11-09T18:43:37.659Z,53.34
2022-11-09T18:46:39.508Z,53.37
2022-11-09T18:49:41.060Z,53.27
2022-11-09T18:52:42.600Z,53.37
2022-11-09T18:55:44.225Z,53.48
2022-11-09T18:58:46.327Z,53.46
2022-11-09T19:01:47.943Z,53.43
2022-11-09T19:04:49.610Z,53.44
2022-11-09T19:07:51.160Z,53.46
2022-11-09T19:10:52.852Z,53.40
2022-11-09T19:13:55.269Z,53.34
2022-11-09T19:16:56.871Z,53.41
2022-11-09T19:19:58.428Z,53.49
2022-11-09T19:22:59.972Z,53.36
2022-11-09T19:26:02.162Z,53.68
2022-11-09T19:29:04.335Z,53.61
2022-11-09T19:32:05.959Z,53.69
2022-11-09T19:35:07.945Z,53.60
2022-11-09T19:38:09.654Z,53.71
2022-11-09T19:41:11.679Z,53.75
2022-11-09T19:44:14.605Z,53.72
2022-11-09T19:47:16.404Z,53.85
2022-11-09T19:50:18.013Z,53.80
2022-11-09T19:53:19.656Z,53.81
2022-11-09T19:56:23.512Z,53.81
2022-11-09T19:59:25.041Z,53.82
2022-11-09T20:02:26.605Z,53.84
2022-11-09T20:05:31.202Z,53.97
2022-11-09T20:08:34.203Z,53.97
2022-11-09T20:11:54.096Z,53.90
2022-11-09T20:14:55.634Z,54.13
2022-11-09T20:17:57.132Z,54.02
2022-11-09T20:20:58.773Z,54.18
2022-11-09T20:24:00.408Z,54.16
2022-11-09T20:27:01.946Z,54.03
2022-11-09T20:30:04.288Z,54.15
2022-11-09T20:33:06.564Z,54.22
2022-11-09T20:36:08.798Z,54.17
2022-11-09T20:39:10.491Z,54.24
2022-11-09T20:42:12.673Z,54.24
2022-11-09T20:45:15.533Z,54.24
2022-11-09T20:48:46.456Z,54.23
2022-11-09T20:51:38.720Z,54.36
2022-11-09T20:54:40.487Z,54.35
2022-11-09T20:57:42.072Z,54.39
2022-11-09T21:00:43.658Z,54.41
2022-11-09T21:03:46.084Z,54.38
2022-11-09T21:06:48.052Z,54.45
2022-11-09T21:09:49.647Z,54.47
2022-11-09T21:12:55.105Z,54.45
2022-11-09T21:16:04.750Z,54.57
2022-11-09T21:19:06.460Z,54.48
2022-11-09T21:22:08.055Z,54.48
2022-11-09T21:25:28.131Z,54.46
2022-11-09T21:28:48.495Z,54.50
2022-11-09T21:31:50.050Z,54.57
2022-11-09T21:34:51.736Z,54.31
2022-11-09T21:37:56.662Z,54.51
2022-11-09T21:41:21.978Z,54.60
2022-11-09T21:44:23.662Z,54.62
2022-11-09T21:47:25.208Z,54.68
2022-11-09T21:50:26.767Z,54.57
2022-11-09T21:53:28.312Z,54.89
2022-11-09T21:56:30.170Z,54.76
2022-11-09T21:59:31.749Z,54.62
2022-11-09T22:02:33.297Z,54.72
2022-11-09T22:05:34.812Z,54.80
2022-11-09T22:08:36.476Z,54.76
2022-11-09T22:11:58.173Z,54.76
2022-11-09T22:15:18.084Z,54.87
2022-11-09T22:18:38.146Z,54.83
2022-11-09T22:21:42.242Z,54.81
2022-11-09T22:24:43.969Z,54.94
2022-11-09T22:27:45.520Z,54.93
2022-11-09T22:30:47.063Z,54.84
2022-11-09T22:33:48.676Z,54.90
2022-11-09T22:36:50.253Z,54.78
2022-11-09T22:39:51.811Z,54.86
2022-11-09T22:42:57.000Z,54.94
2022-11-09T22:46:25.031Z,54.99
2022-11-09T22:49:27.005Z,55.09
2022-11-09T22:52:28.554Z,55.04
2022-11-09T22:55:30.263Z,54.98
2022-11-09T22:58:31.972Z,55.15
2022-11-09T23:01:33.675Z,55.05
2022-11-09T23:04:35.337Z,55.01
2022-11-09T23:07:36.922Z,55.11
2022-11-09T23:10:38.433Z,55.00
2022-11-09T23:13:40.249Z,55.11
2022-11-09T23:16:41.795Z,55.14
2022-11-09T23:19:43.342Z,55.09
2022-11-09T23:22:45.227Z,55.06
2022-11-09T23:25:56.603Z,55.04
2022-11-09T23:28:58.531Z,55.04
2022-11-09T23:32:00.091Z,55.17
2022-11-09T23:35:01.620Z,55.41
2022-11-09T23:38:05.822Z,55.12
2022-11-09T23:41:10.992Z,55.24
2022-11-09T23:44:12.519Z,55.29
2022-11-09T23:47:14.191Z,55.38
2022-11-09T23:50:15.952Z,55.22
2022-11-09T23:53:17.476Z,55.36
2022-11-09T23:56:19.291Z,55.32
2022-11-09T23:59:20.850Z,55.35
